Time;durP1;ratioP1;P1;durP2;ratioP2;P2;SDS_P1;SDS_P2;PMS_P1;PMS_P2;Temp;Humidity;BMP_temperature;BMP_pressure;BME280_temperature;BME280_humidity;BME280_pressure;Samples;Min_cycle;Max_cycle;Signal;HPM_P1;HPM_P2
2021/06/09 00:00:55;;;;;;;10.65;3.83;;;;;;;26.01;39.40;99682.31;4483967;32;34554;-70
2021/06/09 00:03:23;;;;;;;7.70;3.75;;;;;;;26.01;39.49;99679.56;4483822;32;33360;-68
2021/06/09 00:05:51;;;;;;;11.63;3.70;;;;;;;26.01;39.56;99683.13;4483639;32;33883;-69
2021/06/09 00:08:18;;;;;;;7.45;3.70;;;;;;;26.00;39.61;99676.00;4483863;32;33595;-69
2021/06/09 00:10:55;;;;;;;6.55;3.25;;;;;;;26.01;40.16;99683.13;4483688;32;34230;-67
2021/06/09 00:13:24;;;;;;;7.95;4.00;;;;;;;26.00;39.66;99678.75;4483521;32;33087;-68
2021/06/09 00:15:52;;;;;;;9.85;3.53;;;;;;;25.98;39.33;99672.72;4483530;32;33767;-68
2021/06/09 00:18:20;;;;;;;6.93;3.70;;;;;;;25.99;39.54;99679.84;4483497;32;33945;-66
2021/06/09 00:20:47;;;;;;;8.98;3.72;;;;;;;26.00;40.02;99672.47;4483549;32;34221;-67
2021/06/09 00:23:17;;;;;;;4.40;3.10;;;;;;;26.00;39.55;99672.47;4483211;32;34251;-67
2021/06/09 00:25:50;;;;;;;5.68;3.28;;;;;;;25.99;39.59;99673.53;4483570;32;33873;-67
2021/06/09 00:28:19;;;;;;;6.45;3.60;;;;;;;25.99;39.52;99670.81;4483414;32;33853;-68
2021/06/09 00:30:46;;;;;;;5.72;3.15;;;;;;;25.97;39.31;99673.75;4483405;32;33751;-67
2021/06/09 00:33:27;;;;;;;6.03;3.50;;;;;;;25.97;39.49;99670.22;4482427;32;33313;-68
2021/06/09 00:35:57;;;;;;;7.80;3.20;;;;;;;25.99;39.62;99670.81;4483372;32;33788;-68
2021/06/09 00:38:25;;;;;;;5.32;3.42;;;;;;;25.97;39.50;99667.47;4483082;32;33849;-66
2021/06/09 00:40:53;;;;;;;7.25;3.17;;;;;;;25.97;39.36;99664.75;4483159;32;33751;-68
2021/06/09 00:43:22;;;;;;;6.15;3.83;;;;;;;25.96;39.28;99663.91;4482090;32;33383;-69
2021/06/09 00:46:01;;;;;;;6.15;4.03;;;;;;;25.95;39.55;99668.56;4481589;32;34613;-65
2021/06/09 00:48:30;;;;;;;5.60;3.42;;;;;;;25.95;39.59;99662.25;4483303;32;33655;-66
2021/06/09 00:51:13;;;;;;;8.20;3.42;;;;;;;25.95;39.59;99659.53;4483232;32;34784;-69
2021/06/09 00:53:47;;;;;;;7.20;3.78;;;;;;;25.94;40.05;99655.12;4483282;32;34167;-69
2021/06/09 00:56:16;;;;;;;8.52;3.92;;;;;;;25.94;40.01;99653.22;4483017;32;33531;-64
2021/06/09 00:58:46;;;;;;;7.80;3.72;;;;;;;25.94;40.29;99655.12;4483332;32;33818;-69
2021/06/09 01:01:14;;;;;;;8.63;4.32;;;;;;;25.92;39.91;99649.91;4482957;32;34544;-68
2021/06/09 01:03:42;;;;;;;5.55;3.60;;;;;;;25.93;39.95;99653.50;4483043;32;34166;-68
2021/06/09 01:06:10;;;;;;;7.00;3.55;;;;;;;25.92;40.25;99655.38;4483059;32;34585;-69
2021/06/09 01:08:37;;;;;;;7.22;4.00;;;;;;;25.93;40.06;99648.03;4482839;32;33816;-66
2021/06/09 01:11:13;;;;;;;5.40;3.72;;;;;;;25.92;40.20;99649.06;4482654;32;33951;-67
2021/06/09 01:13:41;;;;;;;6.55;3.65;;;;;;;25.92;40.00;99655.38;4482859;32;33465;-69
2021/06/09 01:16:09;;;;;;;6.10;3.67;;;;;;;25.92;40.07;99652.63;4482654;32;33460;-63
2021/06/09 01:18:37;;;;;;;5.65;3.28;;;;;;;25.92;40.26;99662.75;4482537;32;34698;-68
2021/06/09 01:21:05;;;;;;;7.62;4.15;;;;;;;25.92;39.75;99652.63;4482733;32;34888;-68
2021/06/09 01:23:33;;;;;;;8.82;3.65;;;;;;;25.91;40.03;99661.91;4482756;32;33305;-68
2021/06/09 01:26:00;;;;;;;7.90;3.92;;;;;;;25.90;40.11;99652.06;4482625;32;33822;-69
2021/06/09 01:28:28;;;;;;;7.05;3.67;;;;;;;25.92;40.33;99666.31;4482610;32;33522;-68
2021/06/09 01:30:56;;;;;;;5.75;3.42;;;;;;;25.91;40.38;99655.63;4482497;32;33817;-69
2021/06/09 01:33:24;;;;;;;8.07;3.78;;;;;;;25.92;40.44;99662.75;4482552;32;34622;-66
2021/06/09 01:35:53;;;;;;;7.68;3.70;;;;;;;25.91;39.80;99661.91;4483873;32;33855;-68
2021/06/09 01:38:21;;;;;;;6.60;3.72;;;;;;;25.89;39.97;99653.16;4484871;32;33837;-65
2021/06/09 01:40:48;;;;;;;5.85;3.50;;;;;;;25.90;39.37;99651.25;4484865;31;34286;-67
2021/06/09 01:43:16;;;;;;;6.20;3.78;;;;;;;25.90;39.90;99648.50;4484769;32;33296;-68
2021/06/09 01:45:44;;;;;;;6.07;3.50;;;;;;;25.89;40.22;99649.59;4484699;32;33865;-67
2021/06/09 01:48:12;;;;;;;5.37;3.80;;;;;;;25.88;40.12;99645.16;4484794;32;33834;-68
2021/06/09 01:50:40;;;;;;;6.35;3.62;;;;;;;25.89;39.71;99652.31;4484772;32;33741;-64
2021/06/09 01:53:08;;;;;;;7.30;4.22;;;;;;;25.90;39.66;99659.44;4484687;32;33265;-67
2021/06/09 01:55:37;;;;;;;7.18;3.83;;;;;;;25.87;39.67;99649.00;4484689;32;33489;-66
2021/06/09 01:58:05;;;;;;;6.50;3.72;;;;;;;25.87;39.66;99649.81;4484730;32;33783;-68
2021/06/09 02:00:35;;;;;;;6.12;3.35;;;;;;;25.87;39.71;99655.28;4484826;32;34033;-69
2021/06/09 02:03:03;;;;;;;;;;;;;;;25.87;40.04;99649.00;4485097;32;34111;-65
2021/06/09 02:05:32;;;;;;;6.85;3.67;;;;;;;25.98;39.51;99650.84;4484802;32;34042;-67
2021/06/09 02:08:01;;;;;;;6.95;3.55;;;;;;;25.90;39.90;99648.50;4483288;32;34606;-69
2021/06/09 02:10:29;;;;;;;7.15;3.78;;;;;;;25.88;39.98;99656.09;4484693;32;33592;-67
2021/06/09 02:12:58;;;;;;;7.05;3.87;;;;;;;25.89;40.14;99646.84;4484718;32;34432;-68
2021/06/09 02:15:26;;;;;;;8.23;3.63;;;;;;;25.88;40.32;99659.69;4484532;32;33768;-68
2021/06/09 02:20:41;;;;;;;9.18;4.35;;;;;;;25.87;40.01;99652.53;4484427;32;34569;-69
2021/06/09 02:23:13;;;;;;;5.68;3.85;;;;;;;25.87;40.10;99655.28;4485091;32;34046;-69
2021/06/09 02:25:43;;;;;;;8.43;3.72;;;;;;;25.87;40.16;99654.44;4484614;32;33810;-67
2021/06/09 02:28:10;;;;;;;6.90;4.68;;;;;;;25.88;40.28;99656.09;4484687;32;33876;-69
2021/06/09 02:30:43;;;;;;;5.90;4.00;;;;;;;25.89;40.25;99660.53;4484714;32;34465;-68
2021/06/09 02:33:12;;;;;;;7.12;4.05;;;;;;;25.87;40.21;99660.75;4483332;32;33313;-69
2021/06/09 02:35:40;;;;;;;6.25;4.03;;;;;;;25.88;39.94;99658.84;4483328;32;33747;-69
2021/06/09 02:38:08;;;;;;;10.18;4.00;;;;;;;25.87;39.60;99659.91;4484304;32;33949;-68
2021/06/09 02:40:37;;;;;;;8.05;4.12;;;;;;;25.87;39.99;99659.91;4484303;32;34767;-68
2021/06/09 02:43:06;;;;;;;9.15;4.00;;;;;;;25.86;40.00;99655.53;4484483;32;33474;-68
2021/06/09 02:45:35;;;;;;;6.25;3.97;;;;;;;25.86;40.10;99653.62;4484348;32;33565;-65
2021/06/09 02:48:10;;;;;;;8.27;4.20;;;;;;;25.86;39.95;99661.81;4484265;32;33909;-69
2021/06/09 02:50:38;;;;;;;6.82;4.35;;;;;;;25.87;40.10;99655.28;4483145;32;34021;-69
2021/06/09 02:53:33;;;;;;;6.10;4.18;;;;;;;25.86;40.08;99658.28;4484356;32;34288;-68
2021/06/09 02:56:19;;;;;;;10.07;4.53;;;;;;;25.87;39.64;99649.81;4483597;32;33830;-66
2021/06/09 02:59:00;;;;;;;8.18;4.32;;;;;;;25.85;39.15;99648.41;4484507;32;33541;-65
2021/06/09 03:01:53;;;;;;;8.48;4.15;;;;;;;25.86;39.95;99647.34;4483165;32;33847;-68
2021/06/09 03:04:30;;;;;;;8.95;3.97;;;;;;;25.86;40.21;99647.34;4483293;32;33065;-69
2021/06/09 03:07:14;;;;;;;8.88;4.57;;;;;;;25.83;40.26;99653.28;4482916;32;34887;-69
2021/06/09 03:09:54;;;;;;;9.07;3.90;;;;;;;25.83;40.26;99658.75;4483177;32;33936;-69
2021/06/09 03:12:37;;;;;;;8.80;4.25;;;;;;;25.83;40.36;99653.28;4484296;32;33705;-68
2021/06/09 03:15:12;;;;;;;10.65;4.57;;;;;;;25.83;40.43;99658.75;4483103;32;33373;-67
2021/06/09 03:17:55;;;;;;;6.75;4.80;;;;;;;25.83;40.49;99656.84;4484491;32;34603;-66
2021/06/09 03:20:46;;;;;;;8.13;4.12;;;;;;;25.83;39.58;99653.28;4484370;32;33948;-67
2021/06/09 03:23:14;;;;;;;;;;;;;;;25.83;39.72;99654.09;4458426;32;34443;-69
2021/06/09 03:25:51;;;;;;;5.82;4.50;;;;;;;25.90;39.89;99654.78;4484324;32;34068;-66
2021/06/09 03:28:32;;;;;;;12.13;4.82;;;;;;;25.84;40.21;99650.31;4484184;32;33933;-68
2021/06/09 03:31:04;;;;;;;;;;;;;;;25.81;39.49;99656.28;4483186;32;34718;-68
2021/06/09 03:33:38;;;;;;;6.93;4.87;;;;;;;25.89;39.57;99653.16;4484523;32;34918;-67
2021/06/09 03:36:12;;;;;;;11.18;4.40;;;;;;;25.81;39.64;99655.44;4482883;32;34409;-69
2021/06/09 03:38:48;;;;;;;10.15;4.78;;;;;;;25.79;40.17;99654.88;4469906;31;33488;-68
2021/06/09 03:41:16;;;;;;;9.20;4.32;;;;;;;25.80;40.29;99653.78;4482792;32;34771;-69
2021/06/09 03:43:46;;;;;;;10.77;4.95;;;;;;;25.78;40.38;99664.13;4482458;32;34653;-69
2021/06/09 03:46:14;;;;;;;7.95;5.00;;;;;;;25.75;40.07;99662.69;4483948;32;33632;-65
2021/06/09 03:48:44;;;;;;;10.05;5.45;;;;;;;25.77;39.72;99657.84;4469920;32;33762;-66
2021/06/09 03:51:11;;;;;;;7.57;4.53;;;;;;;25.77;39.68;99662.47;4482890;32;33618;-69
2021/06/09 03:53:40;;;;;;;9.57;4.93;;;;;;;25.76;39.68;99656.19;4484013;32;34034;-67
2021/06/09 03:56:08;;;;;;;8.80;4.50;;;;;;;25.77;39.91;99651.53;4482630;32;34187;-66
2021/06/09 03:58:36;;;;;;;8.98;5.10;;;;;;;25.76;40.35;99658.91;4482809;32;34706;-66
2021/06/09 04:01:03;;;;;;;6.85;4.35;;;;;;;25.77;40.32;99660.56;4482996;32;33556;-68
2021/06/09 04:03:32;;;;;;;7.55;5.07;;;;;;;25.78;40.40;99658.66;4469772;32;33398;-69
2021/06/09 04:06:00;;;;;;;10.30;4.97;;;;;;;25.77;40.41;99655.09;4469579;32;32966;-69
2021/06/09 04:08:28;;;;;;;10.05;4.90;;;;;;;25.79;40.46;99660.34;4469953;32;34555;-69
2021/06/09 04:10:55;;;;;;;9.27;4.90;;;;;;;25.79;40.41;99663.06;4483753;32;34628;-68
2021/06/09 04:13:23;;;;;;;12.07;5.12;;;;;;;25.79;40.41;99652.16;4469870;32;33694;-69
2021/06/09 04:15:50;;;;;;;13.02;5.20;;;;;;;25.77;40.64;99651.53;4482227;32;33715;-63
2021/06/09 04:18:18;;;;;;;25.67;5.85;;;;;;;25.79;40.67;99652.97;4482380;32;33826;-69
2021/06/09 04:20:47;;;;;;;9.43;4.85;;;;;;;25.79;40.64;99647.50;4482482;32;33973;-68
2021/06/09 04:23:14;;;;;;;10.55;5.25;;;;;;;25.79;40.63;99660.34;4483700;32;33825;-69
2021/06/09 04:25:42;;;;;;;12.05;4.87;;;;;;;25.80;40.62;99657.34;4469392;32;33256;-68
2021/06/09 04:28:10;;;;;;;8.35;4.65;;;;;;;25.79;40.54;99663.06;4483670;32;33230;-69
2021/06/09 04:30:38;;;;;;;11.02;5.05;;;;;;;25.80;40.55;99659.25;4482362;32;33926;-66
2021/06/09 04:33:10;;;;;;;11.00;5.30;;;;;;;25.79;40.52;99665.81;4483337;32;33674;-68
2021/06/09 04:35:42;;;;;;;10.35;5.28;;;;;;;25.78;40.51;99667.69;4483430;32;33603;-68
2021/06/09 04:38:19;;;;;;;9.85;5.35;;;;;;;25.78;40.46;99666.84;4483392;32;33856;-68
2021/06/09 04:40:48;;;;;;;9.32;4.75;;;;;;;25.78;40.38;99664.13;4483321;32;33571;-69
2021/06/09 04:43:16;;;;;;;13.55;4.85;;;;;;;25.78;40.40;99664.13;4482102;32;34531;-68
2021/06/09 04:45:44;;;;;;;11.50;5.60;;;;;;;25.77;40.42;99666.03;4483186;32;33410;-68
2021/06/09 04:48:13;;;;;;;10.50;5.95;;;;;;;25.76;40.42;99669.03;4483309;32;33850;-66
2021/06/09 04:50:43;;;;;;;16.23;5.53;;;;;;;25.78;40.33;99664.94;4483179;32;34726;-65
2021/06/09 04:53:11;;;;;;;15.38;6.37;;;;;;;25.77;40.36;99668.75;4483024;32;34796;-66
2021/06/09 04:55:44;;;;;;;18.10;6.53;;;;;;;25.77;40.33;99665.22;4482912;32;33308;-66
2021/06/09 04:58:12;;;;;;;17.70;7.43;;;;;;;25.76;40.29;99667.13;4483223;32;33683;-65
2021/06/09 05:00:41;;;;;;;22.83;6.85;;;;;;;25.75;40.23;99670.06;4482837;32;33618;-67
2021/06/09 05:03:08;;;;;;;12.73;7.60;;;;;;;25.73;40.37;99669.47;4482755;32;34749;-65
2021/06/09 05:05:36;;;;;;;20.35;7.07;;;;;;;25.74;40.36;99668.38;4480708;32;32303;-65
2021/06/09 05:08:04;;;;;;;16.23;6.03;;;;;;;25.73;40.43;99669.47;4482791;32;33776;-65
2021/06/09 05:10:34;;;;;;;17.12;7.00;;;;;;;25.73;40.39;99672.19;4484839;32;34021;-65
2021/06/09 05:13:15;;;;;;;14.52;6.03;;;;;;;25.72;40.39;99668.66;4483863;32;34637;-65
2021/06/09 05:15:46;;;;;;;10.57;7.30;;;;;;;25.74;40.44;99668.38;4471238;32;33358;-66
2021/06/09 05:18:22;;;;;;;10.63;6.05;;;;;;;25.73;40.39;99664.84;4483784;32;33804;-66
2021/06/09 05:20:50;;;;;;;13.70;7.05;;;;;;;25.73;40.41;99658.53;4470916;32;33494;-66
2021/06/09 05:23:29;;;;;;;13.82;6.75;;;;;;;25.72;40.46;99665.09;4471055;32;34702;-66
2021/06/09 05:25:57;;;;;;;13.82;5.80;;;;;;;25.70;40.50;99659.88;4471320;32;33206;-67
2021/06/09 05:28:32;;;;;;;13.13;6.43;;;;;;;25.69;40.49;99652.72;4483756;32;33816;-66
2021/06/09 05:31:00;;;;;;;13.50;6.32;;;;;;;25.69;40.45;99653.59;4483651;32;35345;-66
2021/06/09 05:33:28;;;;;;;14.15;7.05;;;;;;;25.70;40.43;99657.16;4470737;32;33823;-65
2021/06/09 05:35:56;;;;;;;10.13;5.80;;;;;;;25.72;40.38;99656.88;4484977;32;34137;-66
2021/06/09 05:38:24;;;;;;;11.65;6.50;;;;;;;25.71;40.36;99653.31;4483561;32;33626;-67
2021/06/09 05:40:56;;;;;;;10.25;5.45;;;;;;;25.72;40.36;99660.44;4483397;31;33929;-67
2021/06/09 05:43:24;;;;;;;13.73;6.28;;;;;;;25.72;40.35;99654.97;4483690;32;33793;-64
2021/06/09 05:45:52;;;;;;;11.63;6.35;;;;;;;25.73;40.36;99655.81;4484688;32;34387;-66
2021/06/09 05:48:20;;;;;;;8.90;6.32;;;;;;;25.73;40.37;99664.00;4484808;32;34621;-66
2021/06/09 05:50:55;;;;;;;12.25;6.07;;;;;;;25.74;40.37;99662.94;4484807;32;34649;-66
2021/06/09 05:53:26;;;;;;;9.50;6.50;;;;;;;25.74;40.36;99660.19;4484488;32;34445;-66
2021/06/09 05:55:54;;;;;;;12.65;6.43;;;;;;;25.72;40.46;99663.19;4484754;32;33399;-66
2021/06/09 05:58:22;;;;;;;9.60;6.93;;;;;;;25.73;40.42;99664.00;4484698;32;34593;-65
2021/06/09 06:01:05;;;;;;;9.32;6.55;;;;;;;25.71;40.53;99661.53;4484875;32;34781;-66
2021/06/09 06:03:33;;;;;;;13.25;7.55;;;;;;;25.72;40.47;99659.63;4484816;32;33753;-66
2021/06/09 06:06:04;;;;;;;12.40;7.18;;;;;;;25.73;40.48;99659.38;4483333;32;33232;-66
2021/06/09 06:08:32;;;;;;;13.68;7.20;;;;;;;25.70;40.55;99666.16;4483697;32;34483;-64
2021/06/09 06:11:01;;;;;;;12.13;7.27;;;;;;;25.72;40.53;99671.38;4483991;32;34720;-64
2021/06/09 06:13:29;;;;;;;11.85;7.10;;;;;;;25.72;40.54;99663.19;4484608;32;35161;-63
2021/06/09 06:16:01;;;;;;;11.43;7.15;;;;;;;25.71;40.58;99675.19;4484592;32;34453;-64
2021/06/09 06:18:37;;;;;;;13.80;6.62;;;;;;;25.70;40.55;99674.38;4484589;32;33862;-64
2021/06/09 06:21:06;;;;;;;11.77;7.15;;;;;;;25.73;40.55;99670.28;4483928;32;33852;-65
2021/06/09 06:23:34;;;;;;;10.07;7.00;;;;;;;25.72;40.61;99671.38;4484645;32;34279;-64
2021/06/09 06:26:11;;;;;;;10.10;6.75;;;;;;;25.72;40.58;99665.91;4484749;32;34036;-65
2021/06/09 06:28:39;;;;;;;9.45;7.07;;;;;;;25.73;40.59;99664.00;4484441;32;34498;-65
2021/06/09 06:31:10;;;;;;;13.30;6.68;;;;;;;25.72;40.73;99670.56;4470290;32;33923;-64
2021/06/09 06:33:39;;;;;;;9.82;6.85;;;;;;;25.70;40.73;99666.16;4484535;32;34575;-65
2021/06/09 06:36:07;;;;;;;10.15;6.82;;;;;;;25.71;40.71;99672.47;4483248;32;34394;-62
2021/06/09 06:38:37;;;;;;;9.80;7.05;;;;;;;25.72;40.73;99676.84;4483923;31;34650;-64
2021/06/09 06:41:05;;;;;;;8.38;6.43;;;;;;;25.71;40.75;99672.47;4470524;32;34717;-65
2021/06/09 06:43:33;;;;;;;9.85;6.43;;;;;;;25.74;40.68;99673.84;4484357;32;33786;-64
2021/06/09 06:46:00;;;;;;;11.20;7.12;;;;;;;25.74;40.66;99673.84;4483171;32;34485;-64
2021/06/09 06:48:28;;;;;;;9.23;6.75;;;;;;;25.73;40.64;99678.50;4470338;32;33331;-65
2021/06/09 06:50:56;;;;;;;8.25;6.32;;;;;;;25.73;40.62;99680.41;4484396;32;33911;-64
2021/06/09 06:53:23;;;;;;;9.30;6.12;;;;;;;25.73;40.61;99681.22;4484314;32;33139;-64
2021/06/09 06:55:51;;;;;;;9.30;6.35;;;;;;;25.75;40.63;99678.28;4474807;32;32986;-64
2021/06/09 06:58:19;;;;;;;9.02;6.95;;;;;;;25.74;40.58;99671.97;4467534;32;33988;-65
2021/06/09 07:00:46;;;;;;;9.93;6.47;;;;;;;25.75;40.52;99678.28;4454637;32;34559;-65
2021/06/09 07:03:14;;;;;;;10.68;6.68;;;;;;;25.77;40.54;99689.81;4468550;32;34488;-64
2021/06/09 07:05:42;;;;;;;8.65;5.95;;;;;;;25.77;40.56;99671.50;4467192;32;33876;-64
2021/06/09 07:08:09;;;;;;;9.32;6.55;;;;;;;25.78;40.56;99672.31;4475034;32;34556;-66
2021/06/09 07:10:37;;;;;;;11.43;7.35;;;;;;;25.79;40.67;99674.00;4475700;32;33546;-65
2021/06/09 07:13:05;;;;;;;8.68;6.68;;;;;;;25.79;40.58;99674.00;4481606;32;33872;-64
2021/06/09 07:15:33;;;;;;;9.95;6.05;;;;;;;25.80;40.50;99679.22;4477743;32;33060;-65
2021/06/09 07:18:01;;;;;;;8.25;6.32;;;;;;;25.82;40.45;99678.97;4460550;32;34857;-65
2021/06/09 07:20:29;;;;;;;10.70;6.97;;;;;;;25.82;40.43;99674.31;4469990;32;34755;-64
2021/06/09 07:22:57;;;;;;;9.05;6.20;;;;;;;25.82;40.60;99674.31;4484093;32;34466;-65
2021/06/09 07:25:26;;;;;;;10.38;7.03;;;;;;;25.83;40.47;99678.72;4484283;32;33037;-64
2021/06/09 07:28:05;;;;;;;7.57;6.28;;;;;;;25.86;40.52;99674.66;4483872;32;33836;-63
2021/06/09 07:30:34;;;;;;;11.30;6.03;;;;;;;25.86;40.45;99674.66;4484140;32;33927;-64
2021/06/09 07:33:03;;;;;;;9.77;6.80;;;;;;;25.88;40.36;99672.50;4483054;32;34593;-65
2021/06/09 07:35:31;;;;;;;8.02;6.53;;;;;;;25.88;40.39;99673.37;4483051;32;33267;-65
2021/06/09 07:38:03;;;;;;;8.82;6.78;;;;;;;25.89;40.35;99672.28;4483389;32;34916;-66
2021/06/09 07:40:33;;;;;;;8.77;6.80;;;;;;;25.88;40.38;99667.03;4483759;32;33972;-66
2021/06/09 07:43:06;;;;;;;9.80;7.55;;;;;;;25.90;40.32;99681.31;4484162;32;34816;-65
2021/06/09 07:45:33;;;;;;;9.60;6.85;;;;;;;25.92;40.22;99684.59;4474885;32;33339;-64
2021/06/09 07:48:01;;;;;;;10.25;6.80;;;;;;;25.93;40.22;99678.91;4469202;32;33447;-65
2021/06/09 07:50:38;;;;;;;10.52;7.20;;;;;;;25.94;40.25;99682.47;4482163;32;33889;-66
2021/06/09 07:53:07;;;;;;;8.65;6.70;;;;;;;25.94;40.26;99680.56;4471296;32;35154;-66
2021/06/09 07:55:34;;;;;;;10.15;6.80;;;;;;;25.95;40.21;99678.66;4454318;32;33382;-66
2021/06/09 07:58:05;;;;;;;9.30;7.05;;;;;;;25.94;40.15;99688.78;4481170;32;33966;-67
2021/06/09 08:00:33;;;;;;;8.57;6.32;;;;;;;25.96;40.18;99693.97;4469568;32;33619;-66
2021/06/09 08:03:01;;;;;;;15.70;7.15;;;;;;;25.96;40.15;99680.31;4483913;32;33427;-65
2021/06/09 08:05:28;;;;;;;10.50;7.05;;;;;;;25.95;40.31;99681.41;4483859;32;33370;-66
2021/06/09 08:07:56;;;;;;;8.25;6.70;;;;;;;25.95;40.28;99676.75;4483672;32;33499;-66
2021/06/09 08:10:40;;;;;;;10.25;6.53;;;;;;;25.97;40.24;99681.97;4467025;32;34672;-65
2021/06/09 08:13:09;;;;;;;9.73;6.90;;;;;;;25.98;40.27;99683.66;4468069;32;34807;-66
2021/06/09 08:15:37;;;;;;;8.45;7.12;;;;;;;25.99;40.24;99687.22;4466765;32;33029;-66
2021/06/09 08:18:06;;;;;;;10.65;6.70;;;;;;;25.98;40.28;99683.66;4466738;32;33717;-66
2021/06/09 08:20:33;;;;;;;10.20;7.20;;;;;;;25.96;40.43;99680.31;4467732;32;33674;-65
2021/06/09 08:23:01;;;;;;;10.73;6.22;;;;;;;25.96;40.54;99685.78;4466654;32;34762;-66
2021/06/09 08:25:29;;;;;;;10.07;6.72;;;;;;;25.98;40.44;99685.56;4467941;32;33036;-65
2021/06/09 08:27:56;;;;;;;11.18;7.18;;;;;;;25.98;40.33;99683.66;4467794;32;33724;-65
2021/06/09 08:30:24;;;;;;;9.98;6.65;;;;;;;25.99;40.37;99677.09;4467692;32;33931;-66
2021/06/09 08:32:52;;;;;;;12.10;6.47;;;;;;;25.98;40.49;99674.63;4467898;32;34655;-65
2021/06/09 08:35:20;;;;;;;8.88;6.53;;;;;;;25.96;40.53;99680.31;4467630;32;34393;-66
2021/06/09 08:37:47;;;;;;;11.02;6.90;;;;;;;25.97;40.51;99678.41;4467709;32;33758;-66
2021/06/09 08:40:15;;;;;;;9.70;7.28;;;;;;;25.99;40.45;99682.56;4467631;32;35069;-66
2021/06/09 08:42:43;;;;;;;8.00;6.10;;;;;;;25.96;40.49;99683.03;4466522;32;34745;-67
2021/06/09 08:45:11;;;;;;;8.43;5.97;;;;;;;25.96;40.39;99677.56;4470703;32;33231;-66
2021/06/09 08:47:39;;;;;;;13.90;7.20;;;;;;;25.98;40.35;99691.03;4485203;32;34832;-65
2021/06/09 08:50:09;;;;;;;14.68;6.50;;;;;;;25.98;40.35;99697.31;4485106;32;33939;-67
2021/06/09 08:52:47;;;;;;;7.82;6.20;;;;;;;25.95;40.49;99695.87;4485184;32;33820;-66
2021/06/09 08:55:16;;;;;;;8.48;5.87;;;;;;;26.00;40.29;99697.88;4485141;32;32988;-66
2021/06/09 08:57:46;;;;;;;10.57;5.90;;;;;;;25.95;40.28;99698.63;4485305;32;33865;-65
2021/06/09 09:00:16;;;;;;;10.10;6.40;;;;;;;25.97;39.93;99697.53;4483975;32;35036;-66
2021/06/09 09:02:45;;;;;;;11.35;6.10;;;;;;;25.98;40.16;99694.59;4485078;32;33414;-64
2021/06/09 09:05:13;;;;;;;11.23;7.10;;;;;;;25.95;40.26;99701.34;4483698;32;33309;-74
2021/06/09 09:07:40;;;;;;;10.38;6.37;;;;;;;25.97;40.05;99698.38;4483776;32;33688;-67
2021/06/09 09:10:09;;;;;;;8.32;5.93;;;;;;;25.98;40.25;99701.97;4484975;32;33537;-66
2021/06/09 09:12:37;;;;;;;12.02;6.18;;;;;;;25.90;39.98;99697.72;4485242;32;33738;-65
2021/06/09 09:15:05;;;;;;;9.65;6.35;;;;;;;25.97;39.91;99703.84;4485007;32;34452;-66
2021/06/09 09:17:52;;;;;;;10.98;6.12;;;;;;;25.96;39.86;99707.66;4483691;32;33532;-66
2021/06/09 09:20:25;;;;;;;12.80;6.55;;;;;;;26.02;39.74;99698.50;4485052;32;33957;-66
2021/06/09 09:22:56;;;;;;;10.32;5.80;;;;;;;26.00;39.87;99697.88;4484917;32;33851;-65
2021/06/09 09:25:27;;;;;;;9.40;5.60;;;;;;;26.01;39.91;99699.53;4485112;32;34449;-67
2021/06/09 09:27:58;;;;;;;9.30;5.70;;;;;;;25.98;39.75;99701.97;4484743;32;33838;-66
2021/06/09 09:30:27;;;;;;;13.70;6.00;;;;;;;25.98;39.73;99705.53;4485054;32;34771;-66
2021/06/09 09:33:06;;;;;;;11.52;6.47;;;;;;;25.97;39.75;99697.53;4484863;32;34178;-65
2021/06/09 09:35:36;;;;;;;12.02;6.45;;;;;;;25.98;39.79;99708.25;4485256;32;33657;-66
2021/06/09 09:38:30;;;;;;;9.10;6.57;;;;;;;25.97;39.87;99695.63;4484917;32;33724;-66
2021/06/09 09:41:16;;;;;;;12.98;6.68;;;;;;;25.97;39.80;99708.47;4484844;32;33919;-67
2021/06/09 09:43:57;;;;;;;9.60;5.55;;;;;;;25.98;40.02;99704.69;4484799;32;33795;-65
2021/06/09 09:46:24;;;;;;;13.05;6.47;;;;;;;26.00;39.87;99703.34;4484744;32;34102;-66
2021/06/09 09:49:11;;;;;;;12.73;5.93;;;;;;;26.00;40.00;99703.34;4484623;32;33557;-67
2021/06/09 09:51:55;;;;;;;8.95;5.75;;;;;;;25.99;40.04;99693.50;4484807;32;33993;-67
2021/06/09 09:54:30;;;;;;;10.10;6.25;;;;;;;26.00;40.07;99700.62;4483993;32;34030;-64
2021/06/09 09:56:59;;;;;;;11.23;6.50;;;;;;;25.99;40.07;99696.25;4481095;32;33430;-65
2021/06/09 09:59:28;;;;;;;13.82;5.78;;;;;;;26.00;40.06;99695.16;4484319;32;33398;-65
2021/06/09 10:01:56;;;;;;;11.18;6.70;;;;;;;26.03;39.98;99696.59;4484887;32;34698;-64
2021/06/09 10:04:28;;;;;;;12.27;6.60;;;;;;;26.01;39.96;99687.78;4484642;32;33814;-64
2021/06/09 10:06:55;;;;;;;8.55;5.82;;;;;;;26.01;40.01;99691.34;4484222;32;34120;-64
2021/06/09 10:09:41;;;;;;;10.98;6.20;;;;;;;26.01;39.91;99690.50;4484752;32;33707;-64
2021/06/09 10:12:11;;;;;;;8.43;6.30;;;;;;;25.99;39.90;99692.69;4484384;32;33954;-65
2021/06/09 10:14:46;;;;;;;10.60;5.82;;;;;;;26.01;40.09;99688.59;4483641;32;34615;-65
2021/06/09 10:17:16;;;;;;;9.60;6.03;;;;;;;26.02;40.03;99684.81;4468962;32;33216;-64
2021/06/09 10:19:45;;;;;;;9.32;6.68;;;;;;;26.02;39.91;99692.16;4469022;32;33834;-65
2021/06/09 10:22:16;;;;;;;10.35;6.10;;;;;;;25.98;40.11;99689.13;4468807;32;34779;-64
2021/06/09 10:24:55;;;;;;;9.95;6.10;;;;;;;25.99;40.14;99692.69;4468730;32;34625;-64
2021/06/09 10:27:32;;;;;;;12.32;6.22;;;;;;;26.01;40.21;99687.78;4468809;32;33416;-65
2021/06/09 10:30:00;;;;;;;12.90;6.30;;;;;;;26.03;40.21;99691.13;4476382;32;33737;-65
2021/06/09 10:32:27;;;;;;;9.48;5.85;;;;;;;25.99;40.27;99692.69;4484188;32;33867;-64
2021/06/09 10:34:55;;;;;;;11.48;6.43;;;;;;;26.01;40.26;99690.50;4484750;32;33838;-64
2021/06/09 10:37:22;;;;;;;9.45;5.90;;;;;;;26.04;40.23;99684.56;4483142;32;34030;-64
2021/06/09 10:39:50;;;;;;;13.82;6.25;;;;;;;26.06;40.16;99675.03;4470293;32;33748;-64
2021/06/09 10:42:18;;;;;;;11.38;6.53;;;;;;;26.03;40.26;99677.44;4470280;32;33577;-64
2021/06/09 10:44:47;;;;;;;11.98;5.95;;;;;;;26.05;40.22;99687.03;4483961;32;33288;-63
2021/06/09 10:47:18;;;;;;;9.07;5.80;;;;;;;26.07;40.20;99676.69;4477770;32;34316;-64
2021/06/09 10:49:46;;;;;;;13.45;6.62;;;;;;;26.08;40.06;99681.09;4484436;32;33802;-65
2021/06/09 10:52:14;;;;;;;9.98;7.10;;;;;;;26.08;40.02;99678.34;4484237;32;33911;-64
2021/06/09 10:54:45;;;;;;;9.48;6.20;;;;;;;26.09;39.93;99676.44;4484465;32;34389;-64
2021/06/09 10:57:14;;;;;;;11.48;6.53;;;;;;;26.09;39.84;99671.81;4484374;32;33258;-65
2021/06/09 10:59:42;;;;;;;9.60;6.60;;;;;;;26.09;39.86;99666.34;4484281;32;33588;-64
2021/06/09 11:02:10;;;;;;;12.35;6.75;;;;;;;26.08;39.81;99675.63;4484410;32;33957;-64
2021/06/09 11:04:46;;;;;;;12.75;6.78;;;;;;;26.08;39.42;99661.12;4483123;32;33860;-65
2021/06/09 11:07:30;;;;;;;9.63;6.80;;;;;;;26.08;39.39;99664.69;4484171;32;33056;-65
2021/06/09 11:10:06;;;;;;;10.77;6.03;;;;;;;26.11;39.07;99661.47;4468454;32;33828;-64
2021/06/09 11:12:48;;;;;;;10.50;6.80;;;;;;;26.11;38.97;99663.34;4468562;32;34660;-64
2021/06/09 11:15:18;;;;;;;9.65;6.72;;;;;;;26.12;39.12;99662.28;4475315;32;33963;-64
2021/06/09 11:17:50;;;;;;;9.98;6.18;;;;;;;26.10;39.14;99653.50;4484510;32;34163;-65
2021/06/09 11:20:38;;;;;;;10.10;7.32;;;;;;;26.09;39.12;99657.31;4484237;32;33855;-64
2021/06/09 11:23:09;;;;;;;11.10;6.30;;;;;;;26.09;39.22;99644.47;4484109;32;34016;-65
2021/06/09 11:25:43;;;;;;;10.82;6.45;;;;;;;26.09;39.19;99646.38;4484236;32;33883;-65
2021/06/09 11:28:20;;;;;;;8.90;6.60;;;;;;;26.10;39.42;99648.00;4483969;32;33302;-64
2021/06/09 11:30:56;;;;;;;10.18;6.12;;;;;;;26.10;39.39;99643.37;4470317;32;34525;-64
2021/06/09 11:33:52;;;;;;;8.73;6.32;;;;;;;26.13;39.27;99640.16;4484275;32;34142;-65
2021/06/09 11:36:20;;;;;;;9.02;6.55;;;;;;;26.15;39.03;99642.63;4483346;32;34538;-66
2021/06/09 11:38:49;;;;;;;12.77;6.28;;;;;;;26.14;39.03;99639.06;4484037;31;34158;-66
2021/06/09 11:41:21;;;;;;;8.93;6.28;;;;;;;26.13;39.02;99642.87;4483936;32;33663;-66
2021/06/09 11:43:49;;;;;;;9.65;6.55;;;;;;;26.13;39.02;99637.41;4482789;32;33875;-64
2021/06/09 11:46:17;;;;;;;9.93;6.57;;;;;;;26.13;38.69;99631.94;4484046;32;33876;-63
2021/06/09 11:49:00;;;;;;;8.60;6.10;;;;;;;26.16;38.68;99626.00;4483972;32;34025;-63
2021/06/09 11:51:33;;;;;;;11.02;7.15;;;;;;;26.26;38.49;99632.69;4483957;32;34117;-63